sensor_id;sensor_type;location;lat;lon;timestamp;temperature;humidity
37408;DHT22;24866;50.248;8.252;2024-03-06T00:00:40;5.60;99.90
37408;DHT22;24866;50.248;8.252;2024-03-06T00:08:10;5.70;99.90
37408;DHT22;24866;50.248;8.252;2024-03-06T00:13:10;5.50;99.90
37408;DHT22;24866;50.248;8.252;2024-03-06T00:18:11;5.60;99.90
37408;DHT22;24866;50.248;8.252;2024-03-06T00:25:42;5.90;99.90
37408;DHT22;24866;50.248;8.252;2024-03-06T00:38:14;6.00;99.90
37408;DHT22;24866;50.248;8.252;2024-03-06T00:40:43;6.10;99.90
37408;DHT22;24866;50.248;8.252;2024-03-06T00:43:13;6.00;99.90
37408;DHT22;24866;50.248;8.252;2024-03-06T00:53:14;5.10;99.90
37408;DHT22;24866;50.248;8.252;2024-03-06T01:05:45;5.40;99.90
37408;DHT22;24866;50.248;8.252;2024-03-06T01:08:16;5.40;99.90
37408;DHT22;24866;50.248;8.252;2024-03-06T01:10:46;5.10;99.90
37408;DHT22;24866;50.248;8.252;2024-03-06T01:18:15;5.30;99.90
37408;DHT22;24866;50.248;8.252;2024-03-06T01:35:48;4.40;99.90
37408;DHT22;24866;50.248;8.252;2024-03-06T01:45:47;4.80;99.90
37408;DHT22;24866;50.248;8.252;2024-03-06T01:48:17;4.80;99.90
37408;DHT22;24866;50.248;8.252;2024-03-06T01:50:50;4.80;99.90
37408;DHT22;24866;50.248;8.252;2024-03-06T01:53:20;4.90;99.90
37408;DHT22;24866;50.248;8.252;2024-03-06T01:55:50;4.80;99.90
37408;DHT22;24866;50.248;8.252;2024-03-06T02:18:22;4.50;99.90
37408;DHT22;24866;50.248;8.252;2024-03-06T02:20:53;4.30;99.90
37408;DHT22;24866;50.248;8.252;2024-03-06T02:23:22;4.30;99.90
37408;DHT22;24866;50.248;8.252;2024-03-06T02:25:52;4.30;99.90
37408;DHT22;24866;50.248;8.252;2024-03-06T02:28:22;4.30;99.90
37408;DHT22;24866;50.248;8.252;2024-03-06T02:30:51;4.30;99.90
37408;DHT22;24866;50.248;8.252;2024-03-06T02:48:23;4.10;99.90
37408;DHT22;24866;50.248;8.252;2024-03-06T02:50:52;4.10;99.90
37408;DHT22;24866;50.248;8.252;2024-03-06T02:53:22;4.30;99.90
37408;DHT22;24866;50.248;8.252;2024-03-06T02:55:52;4.30;99.90
37408;DHT22;24866;50.248;8.252;2024-03-06T08:46:17;5.10;99.90
37408;DHT22;24866;50.248;8.252;2024-03-06T08:48:47;5.10;99.90
37408;DHT22;24866;50.248;8.252;2024-03-06T08:56:20;5.40;99.90
37408;DHT22;24866;50.248;8.252;2024-03-06T09:16:22;5.50;99.90
37408;DHT22;24866;50.248;8.252;2024-03-06T09:18:52;5.50;99.90
37408;DHT22;24866;50.248;8.252;2024-03-06T09:38:58;6.20;99.90
37408;DHT22;24866;50.248;8.252;2024-03-06T09:43:59;6.00;99.90
37408;DHT22;24866;50.248;8.252;2024-03-06T09:51:29;6.10;99.90
37408;DHT22;24866;50.248;8.252;2024-03-06T10:14:04;6.50;99.90
37408;DHT22;24866;50.248;8.252;2024-03-06T10:29:06;6.60;99.90
37408;DHT22;24866;50.248;8.252;2024-03-06T11:49:18;10.00;99.90
37408;DHT22;24866;50.248;8.252;2024-03-06T11:51:49;10.40;99.90
37408;DHT22;24866;50.248;8.252;2024-03-06T11:54:19;10.60;99.90
37408;DHT22;24866;50.248;8.252;2024-03-06T12:04:24;10.00;99.90
37408;DHT22;24866;50.248;8.252;2024-03-06T12:06:56;9.90;99.90
37408;DHT22;24866;50.248;8.252;2024-03-06T12:11:56;11.20;99.90
37408;DHT22;24866;50.248;8.252;2024-03-06T13:29:33;11.00;99.90
37408;DHT22;24866;50.248;8.252;2024-03-06T13:32:03;11.20;99.90
37408;DHT22;24866;50.248;8.252;2024-03-06T13:34:33;11.20;99.90
37408;DHT22;24866;50.248;8.252;2024-03-06T13:37:03;10.70;99.90
37408;DHT22;24866;50.248;8.252;2024-03-06T13:39:35;10.70;99.90
37408;DHT22;24866;50.248;8.252;2024-03-06T13:42:05;10.90;99.90
37408;DHT22;24866;50.248;8.252;2024-03-06T19:17:51;8.30;99.90
37408;DHT22;24866;50.248;8.252;2024-03-06T19:20:21;7.80;99.90
37408;DHT22;24866;50.248;8.252;2024-03-06T19:22:50;7.40;99.90
37408;DHT22;24866;50.248;8.252;2024-03-06T19:25:20;7.30;99.90
37408;DHT22;24866;50.248;8.252;2024-03-06T19:27:50;7.50;99.90
37408;DHT22;24866;50.248;8.252;2024-03-06T19:30:20;7.30;99.90
37408;DHT22;24866;50.248;8.252;2024-03-06T19:32:51;7.30;99.90
37408;DHT22;24866;50.248;8.252;2024-03-06T19:35:21;7.00;99.90
37408;DHT22;24866;50.248;8.252;2024-03-06T19:37:52;7.20;99.90
37408;DHT22;24866;50.248;8.252;2024-03-06T19:40:22;7.30;99.90
37408;DHT22;24866;50.248;8.252;2024-03-06T19:42:52;6.90;99.90
37408;DHT22;24866;50.248;8.252;2024-03-06T19:45:22;7.00;99.90
37408;DHT22;24866;50.248;8.252;2024-03-06T19:47:53;6.90;99.90
37408;DHT22;24866;50.248;8.252;2024-03-06T19:50:23;6.90;99.90
37408;DHT22;24866;50.248;8.252;2024-03-06T19:52:53;6.90;99.90
37408;DHT22;24866;50.248;8.252;2024-03-06T19:55:24;6.90;99.90
37408;DHT22;24866;50.248;8.252;2024-03-06T19:57:54;7.00;99.90
37408;DHT22;24866;50.248;8.252;2024-03-06T20:00:24;6.70;99.90
37408;DHT22;24866;50.248;8.252;2024-03-06T20:02:55;6.70;99.90
37408;DHT22;24866;50.248;8.252;2024-03-06T20:05:25;6.90;99.90
37408;DHT22;24866;50.248;8.252;2024-03-06T20:07:55;6.80;99.90
37408;DHT22;24866;50.248;8.252;2024-03-06T20:10:25;6.80;99.90
37408;DHT22;24866;50.248;8.252;2024-03-06T20:12:55;6.70;99.90
37408;DHT22;24866;50.248;8.252;2024-03-06T20:15:30;6.50;99.90
37408;DHT22;24866;50.248;8.252;2024-03-06T20:18:02;6.40;99.90
37408;DHT22;24866;50.248;8.252;2024-03-06T20:20:32;6.40;99.90
37408;DHT22;24866;50.248;8.252;2024-03-06T20:23:02;6.40;99.90
37408;DHT22;24866;50.248;8.252;2024-03-06T20:25:38;6.40;99.90
37408;DHT22;24866;50.248;8.252;2024-03-06T20:28:08;6.50;99.90
37408;DHT22;24866;50.248;8.252;2024-03-06T20:30:38;6.40;99.90
37408;DHT22;24866;50.248;8.252;2024-03-06T20:33:10;6.50;99.90
37408;DHT22;24866;50.248;8.252;2024-03-06T20:35:40;6.50;99.90
37408;DHT22;24866;50.248;8.252;2024-03-06T20:38:10;6.50;99.90
37408;DHT22;24866;50.248;8.252;2024-03-06T20:40:41;6.30;99.90
37408;DHT22;24866;50.248;8.252;2024-03-06T20:43:13;6.20;99.90
37408;DHT22;24866;50.248;8.252;2024-03-06T20:45:42;5.90;99.90
37408;DHT22;24866;50.248;8.252;2024-03-06T20:48:14;5.70;99.90
37408;DHT22;24866;50.248;8.252;2024-03-06T20:50:43;5.30;99.90
37408;DHT22;24866;50.248;8.252;2024-03-06T20:53:13;5.40;99.90
37408;DHT22;24866;50.248;8.252;2024-03-06T20:55:44;5.50;99.90
37408;DHT22;24866;50.248;8.252;2024-03-06T20:58:15;5.30;99.90
37408;DHT22;24866;50.248;8.252;2024-03-06T21:00:45;5.30;99.90
37408;DHT22;24866;50.248;8.252;2024-03-06T22:53:33;4.00;99.90
37408;DHT22;24866;50.248;8.252;2024-03-06T22:56:03;3.70;99.90
37408;DHT22;24866;50.248;8.252;2024-03-06T23:06:05;3.90;99.90
37408;DHT22;24866;50.248;8.252;2024-03-06T23:08:37;3.80;99.90
37408;DHT22;24866;50.248;8.252;2024-03-06T23:11:06;3.90;99.90
37408;DHT22;24866;50.248;8.252;2024-03-06T23:13:36;3.60;99.90
37408;DHT22;24866;50.248;8.252;2024-03-06T23:16:06;3.60;99.90
37408;DHT22;24866;50.248;8.252;2024-03-06T23:18:35;3.80;99.90
37408;DHT22;24866;50.248;8.252;2024-03-06T23:21:05;3.70;99.90
37408;DHT22;24866;50.248;8.252;2024-03-06T23:23:35;3.80;99.90
37408;DHT22;24866;50.248;8.252;2024-03-06T23:26:06;3.90;99.90
37408;DHT22;24866;50.248;8.252;2024-03-06T23:31:05;3.70;99.90
37408;DHT22;24866;50.248;8.252;2024-03-06T23:33:35;3.90;99.90
